createdAt,value
2017-11-21T00:00:26.826Z,5.30
2017-11-21T00:02:54.998Z,5.20
2017-11-21T00:05:23.179Z,5.30
2017-11-21T00:07:51.357Z,5.20
2017-11-21T00:10:19.534Z,5.20
2017-11-21T00:12:47.776Z,5.20
2017-11-21T00:15:15.971Z,5.20
2017-11-21T00:17:44.151Z,5.20
2017-11-21T00:20:12.426Z,5.20
2017-11-21T00:22:40.629Z,5.10
2017-11-21T00:25:08.856Z,5.10
2017-11-21T00:27:37.030Z,5.20
2017-11-21T00:30:05.269Z,5.20
2017-11-21T00:32:34.276Z,5.20
2017-11-21T00:35:03.245Z,5.20
2017-11-21T00:37:31.428Z,5.10
2017-11-21T00:39:59.628Z,5.10
2017-11-21T00:42:27.802Z,5.10
2017-11-21T00:44:55.972Z,5.10
2017-11-21T00:47:24.188Z,5.10
2017-11-21T00:49:52.491Z,5.10
2017-11-21T00:52:20.676Z,5.10
2017-11-21T00:54:48.914Z,5.20
2017-11-21T00:57:17.097Z,5.10
2017-11-21T00:59:45.298Z,5.20
2017-11-21T01:02:13.478Z,5.20
2017-11-21T01:04:41.713Z,5.20
2017-11-21T01:07:09.881Z,5.20
2017-11-21T01:09:38.071Z,5.20
2017-11-21T01:12:06.240Z,5.20
2017-11-21T01:14:34.483Z,5.20
2017-11-21T01:17:02.705Z,5.20
2017-11-21T01:19:30.866Z,5.20
2017-11-21T01:21:59.072Z,5.20
2017-11-21T01:24:27.255Z,5.20
2017-11-21T01:26:55.448Z,5.20
2017-11-21T01:29:24.383Z,5.20
2017-11-21T01:31:52.583Z,5.10
2017-11-21T01:34:20.766Z,5.20
2017-11-21T01:36:48.974Z,5.20
2017-11-21T01:39:17.170Z,5.20
2017-11-21T01:41:45.401Z,5.20
2017-11-21T01:44:13.600Z,5.20
2017-11-21T01:46:41.970Z,5.10
2017-11-21T01:49:10.935Z,5.10
2017-11-21T01:51:39.118Z,5.00
2017-11-21T01:54:07.276Z,5.10
2017-11-21T01:56:35.500Z,5.10
2017-11-21T01:59:03.698Z,5.10
2017-11-21T02:01:31.882Z,5.10
2017-11-21T02:04:00.069Z,5.10
2017-11-21T02:06:28.254Z,5.10
2017-11-21T02:08:56.438Z,5.10
2017-11-21T02:11:24.692Z,5.10
2017-11-21T02:13:52.920Z,5.10
2017-11-21T02:16:21.079Z,5.10
2017-11-21T02:18:50.030Z,5.00
2017-11-21T02:21:18.219Z,5.00
2017-11-21T02:23:46.407Z,5.00
2017-11-21T02:26:14.586Z,5.00
2017-11-21T02:28:42.769Z,5.00
2017-11-21T02:31:11.756Z,5.00
2017-11-21T02:33:39.962Z,4.90
2017-11-21T02:36:08.135Z,5.00
2017-11-21T02:38:36.355Z,5.00
2017-11-21T02:41:04.605Z,5.00
2017-11-21T02:43:32.785Z,5.00
2017-11-21T02:46:01.756Z,4.90
2017-11-21T02:48:29.964Z,4.90
2017-11-21T02:50:58.146Z,4.90
2017-11-21T02:53:26.345Z,4.90
2017-11-21T02:55:54.518Z,4.80
2017-11-21T02:58:22.747Z,4.80
2017-11-21T03:00:50.947Z,4.80
2017-11-21T03:03:19.133Z,4.80
2017-11-21T03:05:47.308Z,4.80
2017-11-21T03:08:15.498Z,4.80
2017-11-21T03:10:43.664Z,4.80
2017-11-21T03:13:11.867Z,4.90
2017-11-21T03:15:40.807Z,4.90
2017-11-21T03:18:08.990Z,4.80
2017-11-21T03:20:55.090Z,4.80
2017-11-21T03:23:41.323Z,4.80
2017-11-21T03:26:20.162Z,4.50
2017-11-21T03:28:48.362Z,4.50
2017-11-21T03:31:16.560Z,4.30
2017-11-21T03:33:44.748Z,4.20
2017-11-21T03:36:12.947Z,4.10
2017-11-21T03:38:41.928Z,4.00
2017-11-21T03:41:10.940Z,4.00
2017-11-21T03:43:39.919Z,4.00
2017-11-21T03:46:08.946Z,3.90
2017-11-21T03:48:37.147Z,3.90
2017-11-21T03:51:05.378Z,4.00
2017-11-21T03:53:34.314Z,3.90
2017-11-21T03:56:02.529Z,3.90
2017-11-21T03:58:30.715Z,3.80
2017-11-21T04:00:59.694Z,3.80
2017-11-21T04:03:27.916Z,3.70
2017-11-21T04:05:56.121Z,3.70
2017-11-21T04:08:24.316Z,3.70
2017-11-21T04:10:52.523Z,3.70
2017-11-21T04:13:20.721Z,3.60
2017-11-21T04:15:49.016Z,3.60
2017-11-21T04:18:17.229Z,3.60
2017-11-21T04:20:46.193Z,3.40
2017-11-21T04:23:14.446Z,3.40
2017-11-21T04:25:42.634Z,3.40
2017-11-21T04:28:11.630Z,3.30
2017-11-21T04:30:39.809Z,3.30
2017-11-21T04:33:08.014Z,3.30
2017-11-21T04:35:36.218Z,3.30
2017-11-21T04:38:04.414Z,3.20
2017-11-21T04:40:32.587Z,3.20
2017-11-21T04:43:00.776Z,3.10
2017-11-21T04:45:28.953Z,3.10
2017-11-21T04:47:57.119Z,3.10
2017-11-21T04:50:25.307Z,3.10
2017-11-21T04:52:53.487Z,3.10
2017-11-21T04:55:21.664Z,3.10
2017-11-21T04:57:49.876Z,3.10
2017-11-21T05:00:18.858Z,3.00
2017-11-21T05:02:47.824Z,2.90
2017-11-21T05:05:16.006Z,2.90
2017-11-21T05:07:45.222Z,2.90
2017-11-21T05:10:14.222Z,2.80
2017-11-21T05:12:43.203Z,2.80
2017-11-21T05:15:11.383Z,2.70
2017-11-21T05:17:39.580Z,2.80
2017-11-21T05:20:08.530Z,2.80
2017-11-21T05:22:36.767Z,2.70
2017-11-21T05:25:05.059Z,2.80
2017-11-21T05:27:33.335Z,2.80
2017-11-21T05:30:01.544Z,2.70
2017-11-21T05:35:39.071Z,2.70
2017-11-21T05:38:08.028Z,2.60
2017-11-21T05:40:36.197Z,2.60
2017-11-21T05:43:04.407Z,2.60
2017-11-21T05:45:33.378Z,2.60
2017-11-21T05:48:01.578Z,2.50
2017-11-21T05:50:29.770Z,2.60
2017-11-21T05:52:58.690Z,2.70
2017-11-21T05:55:26.880Z,2.60
2017-11-21T05:57:55.075Z,2.70
2017-11-21T06:00:23.347Z,2.70
2017-11-21T06:02:51.553Z,2.80
2017-11-21T06:05:20.510Z,2.80
2017-11-21T06:07:48.725Z,2.80
2017-11-21T06:10:17.688Z,2.90
2017-11-21T06:12:45.887Z,2.80
2017-11-21T06:15:14.886Z,2.90
2017-11-21T06:17:43.830Z,2.90
2017-11-21T06:20:12.118Z,2.80
2017-11-21T06:22:40.331Z,2.90
2017-11-21T06:25:09.262Z,2.90
2017-11-21T06:27:37.429Z,2.80
2017-11-21T06:30:05.600Z,2.90
2017-11-21T06:32:33.764Z,2.90
2017-11-21T06:35:01.963Z,2.90
2017-11-21T06:37:30.134Z,2.90
2017-11-21T06:39:58.327Z,3.00
2017-11-21T06:42:26.531Z,3.00
2017-11-21T06:44:54.697Z,3.10
2017-11-21T06:47:22.875Z,3.10
2017-11-21T06:49:51.049Z,3.20
2017-11-21T06:52:19.305Z,3.30
2017-11-21T06:54:47.486Z,3.30
2017-11-21T06:57:15.665Z,3.40
2017-11-21T06:59:43.875Z,3.50
2017-11-21T07:02:12.895Z,3.60
2017-11-21T07:04:41.084Z,3.50
2017-11-21T07:07:09.295Z,3.60
2017-11-21T07:09:37.454Z,3.70
2017-11-21T07:12:06.407Z,3.70
2017-11-21T07:14:34.611Z,3.70
2017-11-21T07:17:02.852Z,3.80
2017-11-21T07:19:31.023Z,3.90
2017-11-21T07:21:59.198Z,4.00
2017-11-21T07:24:27.411Z,4.10
2017-11-21T07:26:55.586Z,4.20
2017-11-21T07:29:23.761Z,4.30
2017-11-21T07:31:51.936Z,4.40
2017-11-21T07:34:20.103Z,4.50
2017-11-21T07:36:48.275Z,4.60
2017-11-21T07:39:16.463Z,4.70
2017-11-21T07:41:44.626Z,4.80
2017-11-21T07:44:12.795Z,4.80
2017-11-21T07:46:40.969Z,4.90
2017-11-21T07:49:09.144Z,4.90
2017-11-21T07:51:37.323Z,4.90
2017-11-21T07:54:05.504Z,5.00
2017-11-21T07:56:33.674Z,5.00
2017-11-21T07:59:01.854Z,5.10
2017-11-21T08:01:30.034Z,5.20
2017-11-21T08:03:58.201Z,5.30
2017-11-21T08:06:26.389Z,5.40
2017-11-21T08:08:55.323Z,5.60
2017-11-21T08:11:24.267Z,5.70
2017-11-21T08:13:52.537Z,5.70
2017-11-21T08:16:20.731Z,5.90
2017-11-21T08:18:48.895Z,5.90
2017-11-21T08:21:17.116Z,5.90
2017-11-21T08:23:46.052Z,6.00
2017-11-21T08:26:14.221Z,5.90
2017-11-21T08:28:42.433Z,5.90
2017-11-21T08:31:10.597Z,5.90
2017-11-21T08:33:38.779Z,6.00
2017-11-21T08:36:06.960Z,6.10
2017-11-21T08:38:35.131Z,6.20
2017-11-21T08:41:03.323Z,6.20
2017-11-21T08:43:32.266Z,6.40
2017-11-21T08:46:00.444Z,6.40
2017-11-21T08:48:28.612Z,6.50
2017-11-21T08:50:56.791Z,6.60
2017-11-21T08:53:24.964Z,6.70
2017-11-21T08:55:53.144Z,6.70
2017-11-21T08:58:21.325Z,6.80
2017-11-21T09:00:49.499Z,6.80
2017-11-21T09:03:17.676Z,6.80
2017-11-21T09:05:45.874Z,7.00
2017-11-21T09:08:14.053Z,7.10
2017-11-21T09:10:42.239Z,7.20
2017-11-21T09:13:11.181Z,7.40
2017-11-21T09:15:39.346Z,7.40
2017-11-21T09:18:07.539Z,7.50
2017-11-21T09:20:35.711Z,7.60
2017-11-21T09:23:03.880Z,7.70
2017-11-21T09:25:32.082Z,7.90
2017-11-21T09:28:00.251Z,8.10
2017-11-21T09:30:28.419Z,8.40
2017-11-21T09:32:57.362Z,8.60
2017-11-21T09:35:25.528Z,8.50
2017-11-21T09:37:54.465Z,8.70
2017-11-21T09:40:22.663Z,8.60
2017-11-21T09:42:50.844Z,9.00
2017-11-21T09:45:19.041Z,9.30
2017-11-21T09:47:47.984Z,9.30
2017-11-21T09:50:16.242Z,9.20
2017-11-21T09:52:44.414Z,9.20
2017-11-21T09:55:12.575Z,8.80
2017-11-21T09:57:40.752Z,8.50
2017-11-21T10:00:08.949Z,8.50
2017-11-21T10:02:37.126Z,8.60
2017-11-21T10:05:05.302Z,9.20
2017-11-21T10:07:33.509Z,10.00
2017-11-21T10:10:01.709Z,10.50
2017-11-21T10:12:30.705Z,11.00
2017-11-21T10:14:58.937Z,10.90
2017-11-21T10:17:27.158Z,11.90
2017-11-21T10:19:56.121Z,13.80
2017-11-21T10:22:24.374Z,13.70
2017-11-21T10:24:52.564Z,14.30
2017-11-21T10:27:20.738Z,14.50
2017-11-21T10:29:48.942Z,15.10
2017-11-21T10:32:17.911Z,15.80
2017-11-21T10:34:46.152Z,15.80
2017-11-21T10:37:14.344Z,16.60
2017-11-21T10:39:42.574Z,17.60
2017-11-21T10:42:11.521Z,22.10
2017-11-21T10:44:39.711Z,21.90
2017-11-21T10:47:07.907Z,25.00
2017-11-21T10:49:36.840Z,25.30
2017-11-21T10:52:05.051Z,25.20
2017-11-21T10:54:33.248Z,25.00
2017-11-21T10:57:02.207Z,23.60
2017-11-21T10:59:30.370Z,23.40
2017-11-21T11:01:58.571Z,22.70
2017-11-21T11:04:26.772Z,23.70
2017-11-21T11:06:55.736Z,25.90
2017-11-21T11:09:23.916Z,25.80
2017-11-21T11:11:52.127Z,26.60
2017-11-21T11:14:20.295Z,24.70
2017-11-21T11:16:49.245Z,22.10
2017-11-21T11:19:17.427Z,22.00
2017-11-21T11:21:45.618Z,20.30
2017-11-21T11:24:14.559Z,17.80
2017-11-21T11:26:42.744Z,17.70
2017-11-21T11:29:10.931Z,17.10
2017-11-21T11:31:39.108Z,16.60
2017-11-21T11:34:07.312Z,16.20
2017-11-21T11:36:35.532Z,15.60
2017-11-21T11:39:03.735Z,15.40
2017-11-21T11:41:31.921Z,14.90
2017-11-21T11:44:00.096Z,14.80
2017-11-21T11:46:28.269Z,14.80
2017-11-21T11:48:56.447Z,15.30
2017-11-21T11:51:24.651Z,15.50
2017-11-21T11:53:53.649Z,15.60
2017-11-21T11:56:22.605Z,15.30
2017-11-21T11:58:50.823Z,15.30
2017-11-21T12:01:19.013Z,15.20
2017-11-21T12:03:47.245Z,14.90
2017-11-21T12:06:16.201Z,13.90
2017-11-21T12:08:44.385Z,13.90
2017-11-21T12:11:12.571Z,13.30
2017-11-21T12:13:40.796Z,13.20
2017-11-21T12:16:09.109Z,13.20
2017-11-21T12:18:37.288Z,13.00
2017-11-21T12:21:05.499Z,12.40
2017-11-21T12:23:34.519Z,12.10
2017-11-21T12:26:02.711Z,12.00
2017-11-21T12:28:30.907Z,12.10
2017-11-21T12:30:59.100Z,12.10
2017-11-21T12:33:27.334Z,12.10
2017-11-21T12:35:55.576Z,12.10
2017-11-21T12:38:24.588Z,12.10
2017-11-21T12:40:52.778Z,12.10
2017-11-21T12:43:21.004Z,12.20
2017-11-21T12:45:49.212Z,12.20
2017-11-21T12:48:17.427Z,12.00
2017-11-21T12:50:45.629Z,12.10
2017-11-21T12:53:13.886Z,12.20
2017-11-21T12:55:42.174Z,12.10
2017-11-21T12:58:10.362Z,12.10
2017-11-21T13:00:39.368Z,12.40
2017-11-21T13:03:08.305Z,12.70
2017-11-21T13:05:36.522Z,12.70
2017-11-21T13:08:05.558Z,16.20
2017-11-21T13:10:33.805Z,16.10
2017-11-21T13:13:02.761Z,19.40
2017-11-21T13:15:31.095Z,19.30
2017-11-21T13:17:59.313Z,20.10
2017-11-21T13:20:28.282Z,20.50
2017-11-21T13:22:56.517Z,20.50
2017-11-21T13:25:25.516Z,20.60
2017-11-21T13:27:54.457Z,19.40
2017-11-21T13:30:22.735Z,19.30
2017-11-21T13:32:50.981Z,17.70
2017-11-21T13:35:19.181Z,16.90
2017-11-21T13:37:47.361Z,16.10
2017-11-21T13:40:15.567Z,15.20
2017-11-21T13:42:43.848Z,14.60
2017-11-21T13:45:12.086Z,14.70
2017-11-21T13:47:40.339Z,16.10
2017-11-21T13:50:08.548Z,18.20
2017-11-21T13:52:36.779Z,21.50
2017-11-21T13:55:05.041Z,23.90
2017-11-21T13:57:34.024Z,26.20
2017-11-21T14:00:02.988Z,25.90
2017-11-21T14:02:48.871Z,25.80
2017-11-21T14:05:19.848Z,26.00
2017-11-21T14:07:48.882Z,24.20
2017-11-21T14:10:17.144Z,24.10
2017-11-21T14:12:45.343Z,22.10
2017-11-21T14:15:13.556Z,20.00
2017-11-21T14:17:41.883Z,18.30
2017-11-21T14:20:10.181Z,16.90
2017-11-21T14:22:38.421Z,16.00
2017-11-21T14:25:07.423Z,14.70
2017-11-21T14:27:35.632Z,14.70
2017-11-21T14:30:03.973Z,14.20
2017-11-21T14:32:32.180Z,13.70
2017-11-21T14:35:00.385Z,13.00
2017-11-21T14:37:28.700Z,12.50
2017-11-21T14:39:56.904Z,12.10
2017-11-21T14:42:25.098Z,11.80
2017-11-21T14:44:53.290Z,11.60
2017-11-21T14:47:21.500Z,11.40
2017-11-21T14:49:49.758Z,11.30
2017-11-21T14:52:18.774Z,11.00
2017-11-21T14:54:46.977Z,11.00
2017-11-21T14:57:15.156Z,10.90
2017-11-21T14:59:43.486Z,10.80
2017-11-21T15:02:12.504Z,10.50
2017-11-21T15:04:40.715Z,10.40
2017-11-21T15:07:08.938Z,10.30
2017-11-21T15:09:37.915Z,10.00
2017-11-21T15:12:06.875Z,10.00
2017-11-21T15:14:35.054Z,9.90
2017-11-21T15:17:03.253Z,9.80
2017-11-21T15:19:31.452Z,9.70
2017-11-21T15:22:00.424Z,9.60
2017-11-21T15:24:29.385Z,9.60
2017-11-21T15:26:57.606Z,9.50
2017-11-21T15:29:26.637Z,9.40
2017-11-21T15:31:54.912Z,9.40
2017-11-21T15:34:23.139Z,9.30
2017-11-21T15:36:52.104Z,9.20
2017-11-21T15:39:20.331Z,9.10
2017-11-21T15:41:48.532Z,9.20
2017-11-21T15:44:16.732Z,9.10
2017-11-21T15:46:44.943Z,9.10
2017-11-21T15:49:13.961Z,8.90
2017-11-21T15:51:42.202Z,8.90
2017-11-21T15:54:11.173Z,8.70
2017-11-21T15:56:39.411Z,8.70
2017-11-21T15:59:07.663Z,8.70
2017-11-21T16:01:36.670Z,8.60
2017-11-21T16:04:04.868Z,8.50
2017-11-21T16:06:33.115Z,8.60
2017-11-21T16:09:02.149Z,8.50
2017-11-21T16:11:30.381Z,8.40
2017-11-21T16:13:59.350Z,8.40
2017-11-21T16:16:27.528Z,8.40
2017-11-21T16:18:55.786Z,8.40
2017-11-21T16:21:24.041Z,8.40
2017-11-21T16:23:52.304Z,8.30
2017-11-21T16:26:20.565Z,8.30
2017-11-21T16:28:48.776Z,8.30
2017-11-21T16:31:16.989Z,8.20
2017-11-21T16:33:46.018Z,8.20
2017-11-21T16:36:14.299Z,8.10
2017-11-21T16:38:42.531Z,8.10
2017-11-21T16:41:11.491Z,8.10
2017-11-21T16:43:39.667Z,8.00
2017-11-21T16:46:07.884Z,8.00
2017-11-21T16:48:36.863Z,8.00
2017-11-21T16:51:05.072Z,7.90
2017-11-21T16:53:33.403Z,7.90
2017-11-21T16:56:01.625Z,7.90
2017-11-21T16:58:29.894Z,7.90
2017-11-21T17:00:58.856Z,7.80
2017-11-21T17:03:27.061Z,7.70
2017-11-21T17:05:56.036Z,7.80
2017-11-21T17:08:25.077Z,7.80
2017-11-21T17:10:53.297Z,7.70
2017-11-21T17:13:21.614Z,7.80
2017-11-21T17:15:49.881Z,7.70
2017-11-21T17:18:19.155Z,7.70
2017-11-21T17:20:47.598Z,7.70
2017-11-21T17:23:15.848Z,7.70
2017-11-21T17:25:44.237Z,7.60
2017-11-21T17:28:12.500Z,7.60
2017-11-21T17:30:40.747Z,7.60
2017-11-21T17:33:08.957Z,7.60
2017-11-21T17:35:37.197Z,7.60
2017-11-21T17:38:05.417Z,7.60
2017-11-21T17:40:33.628Z,7.60
2017-11-21T17:43:01.856Z,7.60
2017-11-21T17:45:30.060Z,7.60
2017-11-21T17:47:59.055Z,7.70
2017-11-21T17:50:27.257Z,7.60
2017-11-21T17:52:55.469Z,7.70
2017-11-21T17:55:23.679Z,7.70
2017-11-21T17:57:51.909Z,7.70
2017-11-21T18:00:20.918Z,7.70
2017-11-21T18:02:49.941Z,7.70
2017-11-21T18:05:18.140Z,7.60
2017-11-21T18:07:46.378Z,7.70
2017-11-21T18:10:14.646Z,7.80
2017-11-21T18:12:42.887Z,7.80
2017-11-21T18:15:11.116Z,7.80
2017-11-21T18:17:39.350Z,7.80
2017-11-21T18:20:08.303Z,7.80
2017-11-21T18:22:36.519Z,7.70
2017-11-21T18:25:05.490Z,7.90
2017-11-21T18:27:33.713Z,7.80
2017-11-21T18:30:01.902Z,7.90
2017-11-21T18:32:30.112Z,7.90
2017-11-21T18:34:58.354Z,7.90
2017-11-21T18:37:26.587Z,7.90
2017-11-21T18:39:55.554Z,8.00
2017-11-21T18:42:23.737Z,7.90
2017-11-21T18:44:51.929Z,7.90
2017-11-21T18:47:20.896Z,7.90
2017-11-21T18:49:49.114Z,7.80
2017-11-21T18:52:17.411Z,7.90
2017-11-21T18:54:45.640Z,7.90
2017-11-21T18:57:13.808Z,7.90
2017-11-21T18:59:42.020Z,7.90
2017-11-21T19:02:10.233Z,7.90
2017-11-21T19:04:38.462Z,7.80
2017-11-21T19:07:07.409Z,7.80
2017-11-21T19:09:35.620Z,7.80
2017-11-21T19:12:04.583Z,7.80
2017-11-21T19:14:32.850Z,7.80
2017-11-21T19:17:01.056Z,7.80
2017-11-21T19:19:29.248Z,7.80
2017-11-21T19:21:58.207Z,7.80
2017-11-21T19:24:27.155Z,7.80
2017-11-21T19:26:55.405Z,7.80
2017-11-21T19:29:24.389Z,7.80
2017-11-21T19:31:52.567Z,7.80
2017-11-21T19:34:21.556Z,7.80
2017-11-21T19:36:49.793Z,7.80
2017-11-21T19:39:17.984Z,7.80
2017-11-21T19:41:46.219Z,7.80
2017-11-21T19:44:14.408Z,7.80
2017-11-21T19:46:42.615Z,7.80
2017-11-21T19:49:10.848Z,7.80
2017-11-21T19:51:39.053Z,7.70
2017-11-21T19:54:07.253Z,7.70
2017-11-21T19:56:35.521Z,7.70
2017-11-21T19:59:03.744Z,7.70
2017-11-21T20:01:31.953Z,7.70
2017-11-21T20:04:00.181Z,7.70
2017-11-21T20:06:29.188Z,7.80
2017-11-21T20:08:57.415Z,7.70
2017-11-21T20:11:25.622Z,7.70
2017-11-21T20:13:54.641Z,7.70
2017-11-21T20:16:22.855Z,7.70
2017-11-21T20:18:51.069Z,7.70
2017-11-21T20:21:20.065Z,7.60
2017-11-21T20:23:49.039Z,7.60
2017-11-21T20:26:17.216Z,7.50
2017-11-21T20:28:45.449Z,7.50
2017-11-21T20:31:13.680Z,7.50
2017-11-21T20:33:42.677Z,7.50
2017-11-21T20:36:11.667Z,7.40
2017-11-21T20:38:40.634Z,7.40
2017-11-21T20:41:08.816Z,7.30
2017-11-21T20:43:37.020Z,7.40
2017-11-21T20:46:06.005Z,7.50
2017-11-21T20:48:34.962Z,7.50
2017-11-21T20:51:03.158Z,7.40
2017-11-21T20:53:31.369Z,7.40
2017-11-21T20:55:59.606Z,7.50
2017-11-21T20:58:27.869Z,7.40
2017-11-21T21:00:56.137Z,7.40
2017-11-21T21:03:25.154Z,7.40
2017-11-21T21:05:53.364Z,7.40
2017-11-21T21:08:21.914Z,7.50
2017-11-21T21:10:50.185Z,7.50
2017-11-21T21:13:19.552Z,7.50
2017-11-21T21:15:47.766Z,7.50
2017-11-21T21:18:15.974Z,7.40
2017-11-21T21:20:44.167Z,7.40
2017-11-21T21:23:12.377Z,7.30
2017-11-21T21:25:40.615Z,7.20
2017-11-21T21:28:09.006Z,7.20
2017-11-21T21:30:37.242Z,7.10
2017-11-21T21:33:06.211Z,7.00
2017-11-21T21:35:34.410Z,7.00
2017-11-21T21:38:03.425Z,6.90
2017-11-21T21:40:31.753Z,6.80
2017-11-21T21:43:00.045Z,6.80
2017-11-21T21:45:28.239Z,6.80
2017-11-21T21:47:57.248Z,6.70
2017-11-21T21:50:25.481Z,6.60
2017-11-21T21:52:53.729Z,6.60
2017-11-21T21:55:22.021Z,6.60
2017-11-21T21:57:50.249Z,6.50
2017-11-21T22:00:18.474Z,6.40
2017-11-21T22:02:46.669Z,6.40
2017-11-21T22:05:14.944Z,6.40
2017-11-21T22:07:43.206Z,6.30
2017-11-21T22:10:11.456Z,6.30
2017-11-21T22:12:39.705Z,6.30
2017-11-21T22:15:07.904Z,6.30
2017-11-21T22:17:36.198Z,6.30
2017-11-21T22:20:04.444Z,6.20
2017-11-21T22:22:32.714Z,6.20
2017-11-21T22:25:00.911Z,6.20
2017-11-21T22:27:29.117Z,6.20
2017-11-21T22:29:57.363Z,6.20
2017-11-21T22:32:25.593Z,6.20
2017-11-21T22:34:54.582Z,6.20
2017-11-21T22:37:23.531Z,6.20
2017-11-21T22:39:51.711Z,6.10
2017-11-21T22:42:19.905Z,6.10
2017-11-21T22:44:48.124Z,6.00
2017-11-21T22:47:16.291Z,5.90
2017-11-21T22:49:44.540Z,5.90
2017-11-21T22:52:12.713Z,5.90
2017-11-21T22:54:40.958Z,5.90
2017-11-21T22:57:09.209Z,5.90
2017-11-21T22:59:37.442Z,5.80
2017-11-21T23:02:05.622Z,5.80
2017-11-21T23:04:33.847Z,5.80
2017-11-21T23:07:02.057Z,5.70
2017-11-21T23:09:30.315Z,5.70
2017-11-21T23:11:58.536Z,5.70
2017-11-21T23:14:27.525Z,5.60
2017-11-21T23:16:56.544Z,5.60
2017-11-21T23:19:24.776Z,5.50
2017-11-21T23:21:52.991Z,5.50
2017-11-21T23:24:21.193Z,5.50
2017-11-21T23:26:49.474Z,5.40
2017-11-21T23:29:17.773Z,5.40
2017-11-21T23:31:46.118Z,5.50
2017-11-21T23:34:14.351Z,5.50
2017-11-21T23:36:43.311Z,5.50
2017-11-21T23:39:11.632Z,5.50
2017-11-21T23:41:40.609Z,5.60
2017-11-21T23:44:08.818Z,5.50
2017-11-21T23:46:37.073Z,5.60
2017-11-21T23:49:06.088Z,5.50
